Pagrindinis puslapis
METAR-TAF:

METAR-TAF

Oro uostai :

Imperatriso oro uostas

Imperatrisas, Maranjanas, Brazilija

platuma: 05-32S, ilguma: 047-30W, Aukštis: 123 m

Dabartinis oras

Ataskaita buvo paskelbta 33 minutes, ne 20:00 UTC
Vėjas 5 kt iš Vakarų/Pietvakarių
Temperatūra 34°C
Drėgmė 53%
Slėgis 1007 hPa
Matomumas 10 km arba daugiau
Mažai debesys ne aukštis 3000 ft
Išsisklaidę debesys ne aukštis 10000 ft

METAR: SBIZ 152000Z 25005KT 9999 FEW030 SCT100 34/23 Q1007

Laikas: 17:33 (20:33 UTC)

Prognozė

Ataskaita buvo paskelbta 5 valandos ir 33 minutes, ne 15:00 UTC
Prognozė galioja nuo 15 metu 18 UTC su 16 metu 06 UTC
Vėjas 5 kt iš Šiaurės Rytų
Matomumas 10 km arba daugiau
Tapsmas
nuo 15 metu 22 UTC su 15 metu 24 UTC
Vėjas kt iš Šiaurės

TAF: SBIZ 151500Z 1518/1606 04005KT 9999 SCT030TX32/1518Z TN26/1606Z BECMG 1522/1524 00000KT RMK PGU

Orai ataskaitas ir orų prognozės (METAR, TAF).

turimą stotys yra geltonos ir raudonos taškus žemėlapyje.

Perkelti pele per norėdami pamatyti stoties vardą.

Tada spustelėkite, norėdami matyti oro stebėjimo ir prognozės.

Norėdami pakeisti žemėlapį: spustelėkite ant žalios mygtukų su juodo kryžiaus žemyn,; žalią mygtuką su brūkšneliu, jei norite nutolinti; arba žalių rodyklių gretimoms žemėlapius.


METAR-TAF: